This is the latest recevied weather packets stored in our database for station/object NM5PB-13. If no packets are shown the sender has not sent any weather packets the latest 10 day(s).
| Time | Temp. | Humidity | Pressure | Rain* | Wind** | Luminosity | Snow |
|---|---|---|---|---|---|---|---|
| 1777605843 | 6.67° C | 60% | 1016 hPa | 0 mm | - | - | - |
| 1777604939 | 7.22° C | 58% | 1016 hPa | 0 mm | - | - | - |
| 1777604036 | 7.78° C | 58% | 1016 hPa | 0 mm | - | - | - |
| 1777603133 | 7.78° C | 57% | 1016 hPa | 0 mm | - | - | - |
| 1777602231 | 8.33° C | 57% | 1016 hPa | 0 mm | - | - | - |
| 1777601327 | 8.33° C | 58% | 1016 hPa | 0 mm | - | - | - |
| 1777600419 | 8.89° C | 56% | 1015 hPa | 0 mm | - | - | - |
| 1777599516 | 9.44° C | 54% | 1015 hPa | 0 mm | - | - | - |
| 1777598611 | 10° C | 53% | 1015 hPa | 0 mm | - | - | - |
| 1777597705 | 10° C | 53% | 1015 hPa | 0 mm | - | - | - |
| 1777596801 | 10.56° C | 50% | 1014 hPa | 0 mm | - | - | - |
| 1777595898 | 11.11° C | 49% | 1014 hPa | 0 mm | - | - | - |
| 1777594994 | 11.11° C | 47% | 1014 hPa | 0 mm | - | - | - |
| 1777594090 | 11.67° C | 47% | 1014 hPa | 0 mm | - | - | - |
| 1777593183 | 11.67° C | 48% | 1014 hPa | 0 mm | - | - | - |
| 1777592279 | 12.22° C | 47% | 1014 hPa | 0 mm | - | - | - |
| 1777591376 | 12.22° C | 46% | 1014 hPa | 0 mm | - | - | - |
| 1777590470 | 12.22° C | 50% | 1014 hPa | 0 mm | - | - | - |
| 1777589565 | 12.22° C | 52% | 1014 hPa | 0 mm | - | - | - |
| 1777588661 | 12.22° C | 53% | 1014 hPa | 0 mm | - | - | - |
| 1777587759 | 12.22° C | 55% | 1014 hPa | 0 mm | - | - | - |
| 1777586854 | 12.22° C | 56% | 1014 hPa | 0 mm | - | - | - |
| 1777585952 | 11.67° C | 59% | 1014 hPa | 0 mm | - | - | - |
| 1777585048 | 11.67° C | 61% | 1014 hPa | 0 mm | - | - | - |
| 1777584140 | 12.22° C | 59% | 1014 hPa | 0 mm | - | - | - |
* Rain latest hour (hover to see other rain measurements)
** Current wind speed in m/s (hover to see current wind gust speed)